臺北飛航情報區 - 海峽席

METAR RCTP 200400Z 02018G28KT 9999 FEW012 BKN025 BKN040 25/20 Q1007 WS ALL RWY NOSIG RMK A2975=

站台狀態:Online
最後更新:2019-09-20 12:00:02